• Join FlightAware (Why Join?)
  • Login
  • US Flag 
08:45AM EDT


 

Airport Tracker/Info


-or-


 

Live Flight TrackerFlight Track Log ✈ N709UW ✈ 12-Apr-2013 ✈ KMSY - KCLT

Flight Track Log - Related Links

Times and Time Zones

All times are in EDT time to prevent confusion due to time zone crossing. See the N709UW flight status page for this flight to view local times or setup timezone preferences in your user account.

Time Position Orientation Groundspeed Altitude Reporting Facility
EDT Latitude Longitude Course Direction KTS MPH feet Rate Location/Type
07:09AM 29.9958 -90.2819 52° Northeast 155 178 500  Level Houston Center
07:10AM 30.0053 -90.3222 285° West 163 188 2,300 2,040 Climbing Houston Center
07:10AM 30.0189 -90.3481 301° West 192 221 3,200 2,160 Climbing Houston Center
07:11AM 30.0606 -90.3561 351° North 243 280 4,900 2,460 Climbing Houston Center
07:11AM 30.0828 -90.3469 20° North 244 281 5,700 2,880 Climbing Houston Center
07:12AM 30.1463 -90.0222 52° Northeast  Level FlightAware Approximate
07:12AM 30.1333 -90.2761 50° Northeast 277 319 8,700  Level Houston Center
07:13AM 30.2324 -89.9080 50° Northeast  Level FlightAware Approximate
07:13AM 30.1864 -90.1936 53° Northeast 306 352 11,000  Level Houston Center
07:14AM 30.3133 -89.7884 52° Northeast  Level FlightAware Approximate
07:14AM 30.2519 -90.0953 52° Northeast 380 437 12,700  Level Houston Center
07:15AM 30.3200 -89.9928 52° Northeast 397 457 15,300 2,280 Climbing Houston Center
07:16AM 30.3917 -89.8833 53° Northeast 415 478 17,400 1,980 Climbing Houston Center
07:17AM 30.4694 -89.7678 52° Northeast 437 503 19,400 1,860 Climbing Houston Center
07:18AM 30.5411 -89.6444 56° Northeast 454 522 21,300 1,680 Climbing Houston Center
07:19AM 30.6097 -89.5144 58° Northeast 468 539 22,800 1,560 Climbing Houston Center
07:20AM 30.6814 -89.3797 58° Northeast 486 559 24,500 1,620 Climbing Houston Center
07:21AM 30.7522 -89.2414 59° Northeast 497 572 26,100 1,440 Climbing Houston Center
07:22AM 30.8253 -89.1000 59° Northeast 508 585 27,500 1,260 Climbing Houston Center
07:23AM 30.8986 -88.9578 59° Northeast 513 590 28,700 1,080 Climbing Houston Center
07:24AM 30.9681 -88.8244 59° Northeast 526 605 29,800 1,260 Climbing Houston Center
07:25AM 31.0444 -88.6761 59° Northeast 532 612 31,300 1,500 Climbing Houston Center
07:26AM 31.1275 -88.5167 59° Northeast 528 608 32,900 1,320 Climbing Houston Center
07:27AM 31.2028 -88.3703 59° Northeast 529 609 34,000 1,140 Climbing Houston Center
07:28AM 31.2364 -88.3175 53° Northeast 533 613 34,400 900 Climbing Atlanta Center
07:29AM 31.3106 -88.1656 60° Northeast 533 613 35,200 900 Climbing Atlanta Center
07:30AM 31.3547 -88.0731 61° Northeast 544 626 36,000 1,200 Climbing Houston Center
07:30AM 31.3883 -88.0133 57° Northeast 538 619 36,400 780 Climbing Atlanta Center
07:31AM 31.4642 -87.8608 60° Northeast 538 619 37,000 300 Climbing Atlanta Center
07:32AM 31.5419 -87.7108 59° Northeast 538 619 37,000  Level Atlanta Center
07:33AM 31.6172 -87.5578 60° Northeast 538 619 37,000  Level Atlanta Center
07:34AM 31.6944 -87.4069 59° Northeast 538 619 37,000  Level Atlanta Center
07:35AM 31.7567 -87.2700 62° Northeast 532 612 37,000  Level Atlanta Center
07:36AM 31.8336 -87.1164 59° Northeast 532 612 37,000  Level Atlanta Center
07:37AM 31.9081 -86.9650 60° Northeast 538 619 37,000  Level Atlanta Center
07:38AM 31.9825 -86.8131 60° Northeast 538 619 37,000  Level Atlanta Center
07:39AM 32.0719 -86.6442 58° Northeast 548 631 37,000  Level Atlanta Center
07:40AM 32.1461 -86.4894 60° Northeast 548 631 37,000  Level Atlanta Center
07:41AM 32.2197 -86.3417 59° Northeast 537 618 37,000  Level Atlanta Center
07:42AM 32.3100 -86.2014 53° Northeast 537 618 37,000  Level Atlanta Center
07:43AM 32.4061 -86.0733 48° Northeast 528 608 37,000  Level Atlanta Center
07:44AM 32.5083 -85.9403 48° Northeast 528 608 37,000  Level Atlanta Center
07:45AM 32.6128 -85.8069 47° Northeast 533 613 37,000  Level Atlanta Center
07:46AM 32.7125 -85.6756 48° Northeast 533 613 37,000  Level Atlanta Center
07:47AM 32.8103 -85.5439 49° Northeast 533 613 37,000  Level Atlanta Center
07:48AM 32.9078 -85.4119 49° Northeast 533 613 37,000  Level Atlanta Center
07:49AM 33.0053 -85.2747 50° Northeast 533 613 37,000  Level Atlanta Center
07:50AM 33.1067 -85.1522 45° Northeast 520 598 37,000  Level Atlanta Center
07:51AM 33.2058 -85.0194 48° Northeast 520 598 37,000  Level Atlanta Center
07:52AM 33.3031 -84.8839 49° Northeast 527 606 37,000  Level Atlanta Center
07:53AM 33.3850 -84.7703 49° Northeast 522 601 37,000 -300 Level Atlanta Center
07:54AM 33.4797 -84.6414 49° Northeast 516 594 36,400 -840 Descending Atlanta Center
07:55AM 33.5700 -84.5100 50° Northeast 510 587 35,400 -720 Descending Atlanta Center
07:56AM 33.6414 -84.3706 58° Northeast 503 579 35,000 -240 Descending Atlanta Center
07:57AM 33.6919 -84.2111 69° East 488 562 35,000  Level Atlanta Center
07:58AM 33.7378 -84.0464 71° East 510 587 35,000  Level Atlanta Center
07:59AM 33.7817 -83.8889 71° East 499 574 35,000  Level Atlanta Center
08:00AM 33.8253 -83.7311 72° East 499 574 35,000 -360 Level Atlanta Center
08:01AM 33.8706 -83.5708 71° East 498 573 34,300 -900 Descending Atlanta Center
08:02AM 33.9117 -83.4081 73° East 498 573 33,300 -1,020 Descending Atlanta Center
08:03AM 33.8961 -83.2556 97° East 461 531 32,300 -1,020 Descending Atlanta Center
08:04AM 33.8700 -83.0881 101° East 461 531 31,300 -1,080 Descending Atlanta Center
08:05AM 33.8456 -82.9333 101° East 461 531 30,200 -1,080 Descending Atlanta Center
08:06AM 33.8317 -82.7833 96° East 462 532 29,200 -1,080 Descending Atlanta Center
08:07AM 33.8867 -82.6475 64° Northeast 434 499 28,100 -1,140 Descending Atlanta Center
08:08AM 33.9708 -82.5383 47° Northeast 421 484 27,000 -1,320 Descending Atlanta Center
08:09AM 34.0508 -82.4292 48° Northeast 428 493 25,500 -1,440 Descending Atlanta Center
08:10AM 34.1225 -82.3325 48° Northeast 426 490 24,200 -840 Descending Atlanta Center
08:11AM 34.1983 -82.2306 48° Northeast 421 484 23,900 -1,080 Descending Atlanta Center
08:12AM 34.2739 -82.1258 49° Northeast 414 476 22,100 -1,740 Descending Atlanta Center
08:13AM 34.3475 -82.0311 47° Northeast 397 457 20,400 -1,620 Descending Atlanta Center
08:14AM 34.4233 -81.9386 45° Northeast 387 445 18,900 -1,920 Descending Atlanta Center
08:15AM 34.5008 -81.8408 46° Northeast 376 433 16,700 -2,040 Descending Atlanta Center
08:16AM 34.5703 -81.7533 46° Northeast 365 420 15,000 -1,680 Descending Atlanta Center
08:16AM 34.6150 -81.6942 47° Northeast 356 410 14,000 -1,740 Descending Atlanta Center
08:17AM 34.6375 -81.6656 46° Northeast 353 406 13,200 -1,500 Descending Atlanta Center
08:17AM 34.6822 -81.6114 45° Northeast 345 397 12,500 -1,020 Descending Atlanta Center
08:18AM 34.7067 -81.5828 44° Northeast 348 400 12,200 -540 Descending Atlanta Center
08:18AM 34.7514 -81.5258 46° Northeast 346 398 12,000 -240 Descending Atlanta Center
08:19AM 34.7658 -81.5053 49° Northeast 348 400 12,000 -240 Level Atlanta Center
08:19AM 34.8167 -81.4431 45° Northeast 341 392 11,800 -540 Descending Atlanta Center
08:20AM 34.8308 -81.4222 50° Northeast 336 387 11,500 -1,380 Descending Atlanta Center
08:20AM 34.8856 -81.3522 46° Northeast 337 388 10,400 -1,200 Descending Atlanta Center
08:21AM 34.8936 -81.3392 53° Northeast 329 379 10,300 -480 Descending Atlanta Center
08:21AM 34.9383 -81.2794 48° Northeast 334 384 10,000 -300 Descending Atlanta Center
08:22AM 34.9564 -81.2561 47° Northeast 324 373 10,000  Level Atlanta Center
08:22AM 35.0114 -81.1883 45° Northeast 332 382 10,000  Level Atlanta Center
08:23AM 35.0192 -81.1756 53° Northeast 322 371 10,000  Level Atlanta Center
08:23AM 35.0703 -81.1089 47° Northeast 304 350 10,000  Level FAA TRACON SMA TRACON (SMA)
08:24AM 35.0872 -81.0867 47° Northeast 294 338 10,000 -780 Level FAA TRACON SMA TRACON (SMA)
08:24AM 35.1083 -81.0642 41° Northeast 293 337 9,500 -1,440 Descending FAA TRACON SMA TRACON (SMA)
08:24AM 35.1342 -81.0614 North 261 300 9,100 -780 Descending FAA TRACON SMA TRACON (SMA)
08:25AM 35.1578 -81.0647 353° North 277 319 9,000 -300 Descending FAA TRACON SMA TRACON (SMA)
08:25AM 35.1858 -81.0675 355° North 271 312 8,900 -480 Descending FAA TRACON SMA TRACON (SMA)
08:26AM 35.2106 -81.0683 358° North 265 305 8,700 -1,020 Descending FAA TRACON SMA TRACON (SMA)
08:26AM 35.2392 -81.0708 356° North 266 306 8,200 -1,320 Descending FAA TRACON SMA TRACON (SMA)
08:26AM 35.2564 -81.0725 355° North 266 306 7,900 -1,320 Descending FAA TRACON SMA TRACON (SMA)
08:26AM 35.2853 -81.0747 356° North 267 307 7,400 -1,440 Descending FAA TRACON SMA TRACON (SMA)
08:27AM 35.3081 -81.0769 355° North 265 305 7,000 -1,080 Descending FAA TRACON SMA TRACON (SMA)
08:27AM 35.3308 -81.0786 357° North 264 304 6,700 -1,200 Descending FAA TRACON SMA TRACON (SMA)
08:28AM 35.3586 -81.0814 355° North 261 300 6,200 -1,080 Descending FAA TRACON SMA TRACON (SMA)
08:28AM 35.3808 -81.0836 355° North 259 298 6,000 -600 Descending FAA TRACON SMA TRACON (SMA)
08:28AM 35.4028 -81.0856 356° North 258 297 5,800 -1,200 Descending FAA TRACON SMA TRACON (SMA)
08:29AM 35.4303 -81.0756 17° North 274 315 5,200 -1,680 Descending FAA TRACON SMA TRACON (SMA)
08:29AM 35.4453 -81.0519 52° Northeast 286 329 4,700 -1,200 Descending FAA TRACON SMA TRACON (SMA)
08:29AM 35.4483 -81.0236 82° East 253 291 4,400 -660 Descending FAA TRACON SMA TRACON (SMA)
08:29AM 35.4383 -81.0014 119° Southeast 237 273 4,300 -480 Descending FAA TRACON SMA TRACON (SMA)
08:30AM 35.4203 -80.9878 148° Southeast 194 223 4,100 -480 Descending FAA TRACON SMA TRACON (SMA)
08:30AM 35.4047 -80.9836 168° South 183 211 4,000 -300 Descending FAA TRACON SMA TRACON (SMA)
08:30AM 35.3889 -80.9817 174° South 186 214 3,900 -780 Descending FAA TRACON SMA TRACON (SMA)
08:31AM 35.3692 -80.9800 176° South 183 211 3,500 -1,080 Descending FAA TRACON SMA TRACON (SMA)
08:31AM 35.3533 -80.9786 176° South 183 211 3,200 -900 Descending FAA TRACON SMA TRACON (SMA)